sensor_id;sensor_type;location;lat;lon;timestamp;P1;durP1;ratioP1;P2;durP2;ratioP2
23474;SDS011;11910;52.086;21.066;2022-09-09T00:00:11;20.13;;;13.55;;
23474;SDS011;11910;52.086;21.066;2022-09-09T00:02:43;17.10;;;13.68;;
23474;SDS011;11910;52.086;21.066;2022-09-09T00:05:25;18.50;;;12.50;;
23474;SDS011;11910;52.086;21.066;2022-09-09T00:07:54;19.67;;;13.32;;
23474;SDS011;11910;52.086;21.066;2022-09-09T00:16:17;23.00;;;15.52;;
23474;SDS011;11910;52.086;21.066;2022-09-09T00:21:35;20.23;;;13.73;;
23474;SDS011;11910;52.086;21.066;2022-09-09T00:24:23;26.38;;;16.58;;
23474;SDS011;11910;52.086;21.066;2022-09-09T00:26:51;25.92;;;17.00;;
23474;SDS011;11910;52.086;21.066;2022-09-09T00:32:19;24.95;;;17.55;;
23474;SDS011;11910;52.086;21.066;2022-09-09T00:34:48;21.15;;;16.35;;
23474;SDS011;11910;52.086;21.066;2022-09-09T00:37:18;24.05;;;15.80;;
23474;SDS011;11910;52.086;21.066;2022-09-09T00:39:46;20.40;;;15.25;;
23474;SDS011;11910;52.086;21.066;2022-09-09T00:42:46;23.88;;;16.80;;
23474;SDS011;11910;52.086;21.066;2022-09-09T00:47:52;26.10;;;17.80;;
23474;SDS011;11910;52.086;21.066;2022-09-09T00:58:21;28.13;;;19.73;;
23474;SDS011;11910;52.086;21.066;2022-09-09T01:00:49;25.17;;;17.88;;
23474;SDS011;11910;52.086;21.066;2022-09-09T01:11:43;26.15;;;19.85;;
23474;SDS011;11910;52.086;21.066;2022-09-09T01:16:58;35.72;;;24.60;;
23474;SDS011;11910;52.086;21.066;2022-09-09T01:22:10;31.25;;;22.92;;
23474;SDS011;11910;52.086;21.066;2022-09-09T01:25:06;28.30;;;21.27;;
23474;SDS011;11910;52.086;21.066;2022-09-09T01:27:43;30.65;;;22.85;;
23474;SDS011;11910;52.086;21.066;2022-09-09T01:30:12;38.92;;;26.45;;
23474;SDS011;11910;52.086;21.066;2022-09-09T01:32:44;29.95;;;21.67;;
23474;SDS011;11910;52.086;21.066;2022-09-09T01:35:31;31.25;;;23.73;;
23474;SDS011;11910;52.086;21.066;2022-09-09T01:38:11;24.50;;;18.05;;
23474;SDS011;11910;52.086;21.066;2022-09-09T01:40:38;29.35;;;21.67;;
23474;SDS011;11910;52.086;21.066;2022-09-09T01:43:04;25.52;;;20.23;;
23474;SDS011;11910;52.086;21.066;2022-09-09T01:45:31;23.52;;;17.52;;
23474;SDS011;11910;52.086;21.066;2022-09-09T01:47:57;29.67;;;22.20;;
23474;SDS011;11910;52.086;21.066;2022-09-09T01:50:24;26.00;;;19.45;;
23474;SDS011;11910;52.086;21.066;2022-09-09T01:52:51;31.15;;;22.83;;
23474;SDS011;11910;52.086;21.066;2022-09-09T01:55:23;24.20;;;19.35;;
23474;SDS011;11910;52.086;21.066;2022-09-09T01:58:02;28.92;;;20.38;;
23474;SDS011;11910;52.086;21.066;2022-09-09T02:00:31;26.77;;;19.63;;
23474;SDS011;11910;52.086;21.066;2022-09-09T02:03:05;25.95;;;19.10;;
23474;SDS011;11910;52.086;21.066;2022-09-09T02:08:50;26.73;;;21.25;;
23474;SDS011;11910;52.086;21.066;2022-09-09T02:11:21;20.85;;;15.88;;
23474;SDS011;11910;52.086;21.066;2022-09-09T02:13:48;24.92;;;19.13;;
23474;SDS011;11910;52.086;21.066;2022-09-09T02:16:24;28.25;;;19.60;;
23474;SDS011;11910;52.086;21.066;2022-09-09T02:21:22;31.45;;;22.50;;
23474;SDS011;11910;52.086;21.066;2022-09-09T02:23:49;28.40;;;20.98;;
23474;SDS011;11910;52.086;21.066;2022-09-09T02:26:17;27.45;;;20.33;;
23474;SDS011;11910;52.086;21.066;2022-09-09T02:28:47;33.65;;;23.88;;
23474;SDS011;11910;52.086;21.066;2022-09-09T02:31:16;29.58;;;21.10;;
23474;SDS011;11910;52.086;21.066;2022-09-09T02:33:46;31.77;;;22.23;;
23474;SDS011;11910;52.086;21.066;2022-09-09T02:36:17;31.38;;;23.00;;
23474;SDS011;11910;52.086;21.066;2022-09-09T02:38:45;29.33;;;21.42;;
23474;SDS011;11910;52.086;21.066;2022-09-09T02:41:19;31.58;;;23.48;;
23474;SDS011;11910;52.086;21.066;2022-09-09T02:43:47;31.15;;;23.38;;
23474;SDS011;11910;52.086;21.066;2022-09-09T02:49:06;46.58;;;28.02;;
23474;SDS011;11910;52.086;21.066;2022-09-09T02:56:55;33.90;;;25.90;;
23474;SDS011;11910;52.086;21.066;2022-09-09T02:59:26;32.95;;;24.90;;
23474;SDS011;11910;52.086;21.066;2022-09-09T03:01:52;32.95;;;23.10;;
23474;SDS011;11910;52.086;21.066;2022-09-09T03:04:18;34.22;;;24.60;;
23474;SDS011;11910;52.086;21.066;2022-09-09T03:06:44;36.50;;;26.00;;
23474;SDS011;11910;52.086;21.066;2022-09-09T03:09:09;27.92;;;21.77;;
23474;SDS011;11910;52.086;21.066;2022-09-09T03:11:35;37.88;;;27.67;;
23474;SDS011;11910;52.086;21.066;2022-09-09T03:14:02;44.05;;;30.85;;
23474;SDS011;11910;52.086;21.066;2022-09-09T03:16:27;40.88;;;28.85;;
23474;SDS011;11910;52.086;21.066;2022-09-09T03:18:53;34.00;;;25.80;;
23474;SDS011;11910;52.086;21.066;2022-09-09T03:21:19;40.33;;;29.20;;
23474;SDS011;11910;52.086;21.066;2022-09-09T03:23:45;32.90;;;25.25;;
23474;SDS011;11910;52.086;21.066;2022-09-09T03:26:11;47.70;;;31.60;;
23474;SDS011;11910;52.086;21.066;2022-09-09T03:28:39;40.47;;;30.27;;
23474;SDS011;11910;52.086;21.066;2022-09-09T03:31:05;36.03;;;27.83;;
23474;SDS011;11910;52.086;21.066;2022-09-09T03:33:31;32.90;;;25.50;;
23474;SDS011;11910;52.086;21.066;2022-09-09T03:35:57;37.08;;;25.13;;
23474;SDS011;11910;52.086;21.066;2022-09-09T03:38:23;42.58;;;28.85;;
23474;SDS011;11910;52.086;21.066;2022-09-09T03:40:53;30.60;;;23.10;;
23474;SDS011;11910;52.086;21.066;2022-09-09T03:43:20;29.10;;;22.70;;
23474;SDS011;11910;52.086;21.066;2022-09-09T03:45:47;21.25;;;16.48;;
23474;SDS011;11910;52.086;21.066;2022-09-09T03:48:13;35.03;;;27.02;;
23474;SDS011;11910;52.086;21.066;2022-09-09T03:50:44;28.92;;;22.02;;
23474;SDS011;11910;52.086;21.066;2022-09-09T03:53:10;28.67;;;23.73;;
23474;SDS011;11910;52.086;21.066;2022-09-09T03:55:36;22.50;;;18.42;;
23474;SDS011;11910;52.086;21.066;2022-09-09T03:58:02;21.25;;;17.02;;
23474;SDS011;11910;52.086;21.066;2022-09-09T04:00:27;29.30;;;22.95;;
23474;SDS011;11910;52.086;21.066;2022-09-09T04:02:54;26.50;;;21.92;;
23474;SDS011;11910;52.086;21.066;2022-09-09T04:05:22;24.77;;;20.40;;
23474;SDS011;11910;52.086;21.066;2022-09-09T04:07:48;20.85;;;18.17;;
23474;SDS011;11910;52.086;21.066;2022-09-09T04:10:14;31.65;;;22.80;;
23474;SDS011;11910;52.086;21.066;2022-09-09T04:12:40;28.65;;;22.05;;
23474;SDS011;11910;52.086;21.066;2022-09-09T04:15:06;20.90;;;17.38;;
23474;SDS011;11910;52.086;21.066;2022-09-09T04:17:32;24.90;;;19.98;;
23474;SDS011;11910;52.086;21.066;2022-09-09T04:19:58;26.33;;;21.85;;
23474;SDS011;11910;52.086;21.066;2022-09-09T04:22:23;22.35;;;17.92;;
23474;SDS011;11910;52.086;21.066;2022-09-09T04:24:49;26.77;;;22.02;;
23474;SDS011;11910;52.086;21.066;2022-09-09T04:27:15;26.83;;;21.27;;
23474;SDS011;11910;52.086;21.066;2022-09-09T04:29:40;29.75;;;24.05;;
23474;SDS011;11910;52.086;21.066;2022-09-09T04:32:06;26.90;;;21.98;;
23474;SDS011;11910;52.086;21.066;2022-09-09T04:34:31;30.02;;;23.27;;
23474;SDS011;11910;52.086;21.066;2022-09-09T04:36:57;22.52;;;18.92;;
23474;SDS011;11910;52.086;21.066;2022-09-09T04:39:25;27.65;;;21.98;;
23474;SDS011;11910;52.086;21.066;2022-09-09T04:41:51;23.80;;;19.67;;
23474;SDS011;11910;52.086;21.066;2022-09-09T04:44:16;44.80;;;30.35;;
23474;SDS011;11910;52.086;21.066;2022-09-09T04:46:42;23.35;;;19.10;;
23474;SDS011;11910;52.086;21.066;2022-09-09T04:49:08;33.42;;;25.50;;
23474;SDS011;11910;52.086;21.066;2022-09-09T04:51:33;32.25;;;26.13;;
23474;SDS011;11910;52.086;21.066;2022-09-09T04:53:59;34.20;;;25.88;;
23474;SDS011;11910;52.086;21.066;2022-09-09T04:56:24;36.40;;;27.10;;
23474;SDS011;11910;52.086;21.066;2022-09-09T04:58:53;56.55;;;27.38;;
23474;SDS011;11910;52.086;21.066;2022-09-09T05:01:21;17.38;;;15.57;;
23474;SDS011;11910;52.086;21.066;2022-09-09T05:03:48;32.28;;;25.17;;
23474;SDS011;11910;52.086;21.066;2022-09-09T05:06:14;14.32;;;12.82;;
23474;SDS011;11910;52.086;21.066;2022-09-09T05:08:44;27.02;;;21.65;;
23474;SDS011;11910;52.086;21.066;2022-09-09T05:11:20;25.58;;;20.55;;
23474;SDS011;11910;52.086;21.066;2022-09-09T05:13:46;27.83;;;21.95;;
23474;SDS011;11910;52.086;21.066;2022-09-09T05:16:13;21.38;;;17.75;;
23474;SDS011;11910;52.086;21.066;2022-09-09T05:18:39;20.70;;;16.25;;
23474;SDS011;11910;52.086;21.066;2022-09-09T05:21:07;24.55;;;19.85;;
23474;SDS011;11910;52.086;21.066;2022-09-09T05:23:34;20.02;;;17.08;;
23474;SDS011;11910;52.086;21.066;2022-09-09T05:26:00;25.33;;;21.80;;
23474;SDS011;11910;52.086;21.066;2022-09-09T05:28:26;21.95;;;18.25;;
23474;SDS011;11910;52.086;21.066;2022-09-09T05:30:55;25.38;;;20.52;;
23474;SDS011;11910;52.086;21.066;2022-09-09T05:33:26;22.00;;;19.10;;
23474;SDS011;11910;52.086;21.066;2022-09-09T05:35:58;26.65;;;20.83;;
23474;SDS011;11910;52.086;21.066;2022-09-09T05:38:27;29.75;;;21.73;;
23474;SDS011;11910;52.086;21.066;2022-09-09T05:40:54;19.40;;;16.63;;
23474;SDS011;11910;52.086;21.066;2022-09-09T05:43:21;21.38;;;16.77;;
23474;SDS011;11910;52.086;21.066;2022-09-09T05:45:47;25.63;;;20.25;;
23474;SDS011;11910;52.086;21.066;2022-09-09T05:48:23;24.13;;;18.77;;
23474;SDS011;11910;52.086;21.066;2022-09-09T05:50:52;26.27;;;20.88;;
23474;SDS011;11910;52.086;21.066;2022-09-09T05:53:19;16.65;;;13.52;;
23474;SDS011;11910;52.086;21.066;2022-09-09T05:55:45;22.33;;;18.77;;
23474;SDS011;11910;52.086;21.066;2022-09-09T05:58:10;24.73;;;19.48;;
23474;SDS011;11910;52.086;21.066;2022-09-09T06:00:36;22.20;;;19.33;;
23474;SDS011;11910;52.086;21.066;2022-09-09T06:03:03;28.23;;;22.23;;
23474;SDS011;11910;52.086;21.066;2022-09-09T06:05:29;25.42;;;20.52;;
23474;SDS011;11910;52.086;21.066;2022-09-09T06:07:55;25.77;;;20.70;;
23474;SDS011;11910;52.086;21.066;2022-09-09T06:10:21;28.30;;;21.83;;
23474;SDS011;11910;52.086;21.066;2022-09-09T06:12:47;27.67;;;21.70;;
23474;SDS011;11910;52.086;21.066;2022-09-09T06:15:13;31.00;;;23.55;;
23474;SDS011;11910;52.086;21.066;2022-09-09T06:17:39;24.20;;;20.50;;
23474;SDS011;11910;52.086;21.066;2022-09-09T06:20:06;18.67;;;16.73;;
23474;SDS011;11910;52.086;21.066;2022-09-09T06:22:34;18.83;;;16.38;;
23474;SDS011;11910;52.086;21.066;2022-09-09T06:24:59;29.38;;;23.38;;
23474;SDS011;11910;52.086;21.066;2022-09-09T06:27:26;28.35;;;22.77;;
23474;SDS011;11910;52.086;21.066;2022-09-09T06:29:53;25.63;;;20.15;;
23474;SDS011;11910;52.086;21.066;2022-09-09T06:32:19;34.60;;;24.17;;
23474;SDS011;11910;52.086;21.066;2022-09-09T06:34:44;25.90;;;21.73;;
23474;SDS011;11910;52.086;21.066;2022-09-09T06:37:10;29.38;;;24.40;;
23474;SDS011;11910;52.086;21.066;2022-09-09T06:39:36;29.10;;;24.00;;
23474;SDS011;11910;52.086;21.066;2022-09-09T06:42:01;36.85;;;26.67;;
23474;SDS011;11910;52.086;21.066;2022-09-09T06:44:27;35.67;;;27.17;;
23474;SDS011;11910;52.086;21.066;2022-09-09T06:46:53;28.17;;;22.13;;
23474;SDS011;11910;52.086;21.066;2022-09-09T06:49:18;27.67;;;22.67;;
23474;SDS011;11910;52.086;21.066;2022-09-09T06:51:44;48.40;;;30.85;;
23474;SDS011;11910;52.086;21.066;2022-09-09T06:54:10;27.73;;;22.90;;
23474;SDS011;11910;52.086;21.066;2022-09-09T06:56:40;25.23;;;20.77;;
23474;SDS011;11910;52.086;21.066;2022-09-09T06:59:08;23.50;;;19.80;;
23474;SDS011;11910;52.086;21.066;2022-09-09T07:01:35;22.45;;;19.02;;
23474;SDS011;11910;52.086;21.066;2022-09-09T07:04:03;23.83;;;21.10;;
23474;SDS011;11910;52.086;21.066;2022-09-09T07:06:33;24.02;;;20.50;;
23474;SDS011;11910;52.086;21.066;2022-09-09T07:09:03;28.25;;;22.27;;
23474;SDS011;11910;52.086;21.066;2022-09-09T07:11:51;22.02;;;19.73;;
23474;SDS011;11910;52.086;21.066;2022-09-09T07:14:20;21.00;;;18.55;;
23474;SDS011;11910;52.086;21.066;2022-09-09T07:16:46;26.77;;;22.80;;
23474;SDS011;11910;52.086;21.066;2022-09-09T07:19:13;33.15;;;24.63;;
23474;SDS011;11910;52.086;21.066;2022-09-09T07:21:39;34.60;;;27.08;;
23474;SDS011;11910;52.086;21.066;2022-09-09T07:24:05;25.75;;;21.80;;
23474;SDS011;11910;52.086;21.066;2022-09-09T07:26:35;23.10;;;20.05;;
23474;SDS011;11910;52.086;21.066;2022-09-09T07:29:01;30.65;;;25.10;;
23474;SDS011;11910;52.086;21.066;2022-09-09T07:31:31;34.97;;;26.45;;
23474;SDS011;11910;52.086;21.066;2022-09-09T07:33:59;26.75;;;23.85;;
23474;SDS011;11910;52.086;21.066;2022-09-09T07:36:26;35.63;;;27.55;;
23474;SDS011;11910;52.086;21.066;2022-09-09T07:39:15;35.58;;;26.75;;
23474;SDS011;11910;52.086;21.066;2022-09-09T07:41:43;34.88;;;24.38;;
23474;SDS011;11910;52.086;21.066;2022-09-09T07:44:12;34.85;;;25.52;;
23474;SDS011;11910;52.086;21.066;2022-09-09T07:46:39;30.88;;;23.95;;
23474;SDS011;11910;52.086;21.066;2022-09-09T07:49:06;30.10;;;24.25;;
23474;SDS011;11910;52.086;21.066;2022-09-09T07:51:33;29.17;;;23.48;;
23474;SDS011;11910;52.086;21.066;2022-09-09T07:54:01;26.92;;;21.52;;
23474;SDS011;11910;52.086;21.066;2022-09-09T07:56:29;26.88;;;21.88;;
23474;SDS011;11910;52.086;21.066;2022-09-09T07:58:56;30.38;;;23.40;;
23474;SDS011;11910;52.086;21.066;2022-09-09T08:04:19;30.25;;;24.40;;
23474;SDS011;11910;52.086;21.066;2022-09-09T08:06:48;27.23;;;21.10;;
23474;SDS011;11910;52.086;21.066;2022-09-09T08:09:15;28.38;;;23.88;;
23474;SDS011;11910;52.086;21.066;2022-09-09T08:11:42;33.05;;;24.02;;
23474;SDS011;11910;52.086;21.066;2022-09-09T08:14:08;25.80;;;20.85;;
23474;SDS011;11910;52.086;21.066;2022-09-09T08:16:36;31.63;;;24.85;;
23474;SDS011;11910;52.086;21.066;2022-09-09T08:19:04;37.40;;;26.70;;
23474;SDS011;11910;52.086;21.066;2022-09-09T08:21:31;26.23;;;21.42;;
23474;SDS011;11910;52.086;21.066;2022-09-09T08:23:59;31.00;;;23.77;;
23474;SDS011;11910;52.086;21.066;2022-09-09T08:26:33;34.75;;;25.20;;
23474;SDS011;11910;52.086;21.066;2022-09-09T08:29:00;38.40;;;28.25;;
23474;SDS011;11910;52.086;21.066;2022-09-09T08:31:31;33.28;;;25.25;;
23474;SDS011;11910;52.086;21.066;2022-09-09T08:34:02;35.40;;;25.25;;
23474;SDS011;11910;52.086;21.066;2022-09-09T08:36:29;36.92;;;26.52;;
23474;SDS011;11910;52.086;21.066;2022-09-09T08:38:58;34.22;;;26.13;;
23474;SDS011;11910;52.086;21.066;2022-09-09T08:41:41;38.38;;;26.50;;
23474;SDS011;11910;52.086;21.066;2022-09-09T08:58:02;26.00;;;19.90;;
23474;SDS011;11910;52.086;21.066;2022-09-09T09:01:14;34.25;;;23.73;;
23474;SDS011;11910;52.086;21.066;2022-09-09T09:11:51;30.73;;;22.92;;
23474;SDS011;11910;52.086;21.066;2022-09-09T09:19:24;32.40;;;24.10;;
23474;SDS011;11910;52.086;21.066;2022-09-09T09:24:53;33.47;;;24.08;;
23474;SDS011;11910;52.086;21.066;2022-09-09T09:27:48;36.47;;;24.85;;
23474;SDS011;11910;52.086;21.066;2022-09-09T09:30:26;37.25;;;26.90;;
23474;SDS011;11910;52.086;21.066;2022-09-09T09:33:05;29.83;;;23.95;;
23474;SDS011;11910;52.086;21.066;2022-09-09T09:35:40;28.45;;;22.35;;
23474;SDS011;11910;52.086;21.066;2022-09-09T09:38:14;36.80;;;26.35;;
23474;SDS011;11910;52.086;21.066;2022-09-09T09:40:51;34.40;;;24.63;;
23474;SDS011;11910;52.086;21.066;2022-09-09T09:45:59;44.92;;;30.00;;
23474;SDS011;11910;52.086;21.066;2022-09-09T09:48:26;35.95;;;26.67;;
23474;SDS011;11910;52.086;21.066;2022-09-09T09:50:56;43.58;;;29.38;;
23474;SDS011;11910;52.086;21.066;2022-09-09T09:53:26;36.03;;;26.55;;
23474;SDS011;11910;52.086;21.066;2022-09-09T09:55:55;41.85;;;28.70;;
23474;SDS011;11910;52.086;21.066;2022-09-09T09:58:26;38.95;;;27.45;;
23474;SDS011;11910;52.086;21.066;2022-09-09T10:00:56;48.92;;;29.05;;
23474;SDS011;11910;52.086;21.066;2022-09-09T10:03:23;41.47;;;27.92;;
23474;SDS011;11910;52.086;21.066;2022-09-09T10:05:51;43.55;;;29.60;;
23474;SDS011;11910;52.086;21.066;2022-09-09T10:08:19;43.75;;;29.52;;
23474;SDS011;11910;52.086;21.066;2022-09-09T10:19:13;39.60;;;27.70;;
23474;SDS011;11910;52.086;21.066;2022-09-09T10:27:20;52.00;;;33.20;;
23474;SDS011;11910;52.086;21.066;2022-09-09T10:32:30;48.75;;;31.90;;
23474;SDS011;11910;52.086;21.066;2022-09-09T10:35:02;47.13;;;30.55;;
23474;SDS011;11910;52.086;21.066;2022-09-09T10:45:39;55.72;;;34.55;;
23474;SDS011;11910;52.086;21.066;2022-09-09T10:48:30;53.13;;;33.67;;
23474;SDS011;11910;52.086;21.066;2022-09-09T10:57:33;51.30;;;32.53;;
23474;SDS011;11910;52.086;21.066;2022-09-09T10:59:44;60.58;;;36.55;;
23474;SDS011;11910;52.086;21.066;2022-09-09T11:02:17;59.42;;;36.03;;
23474;SDS011;11910;52.086;21.066;2022-09-09T11:04:53;59.38;;;36.67;;
23474;SDS011;11910;52.086;21.066;2022-09-09T11:07:34;54.28;;;34.17;;
23474;SDS011;11910;52.086;21.066;2022-09-09T11:10:25;60.10;;;36.28;;
23474;SDS011;11910;52.086;21.066;2022-09-09T11:12:54;60.20;;;38.65;;
23474;SDS011;11910;52.086;21.066;2022-09-09T11:15:28;55.05;;;35.28;;
23474;SDS011;11910;52.086;21.066;2022-09-09T11:18:01;62.08;;;36.75;;
23474;SDS011;11910;52.086;21.066;2022-09-09T11:20:29;61.78;;;37.42;;
23474;SDS011;11910;52.086;21.066;2022-09-09T11:23:02;61.38;;;37.53;;
23474;SDS011;11910;52.086;21.066;2022-09-09T11:25:42;59.90;;;39.20;;
23474;SDS011;11910;52.086;21.066;2022-09-09T11:42:41;75.65;;;42.20;;
23474;SDS011;11910;52.086;21.066;2022-09-09T11:45:19;77.65;;;43.85;;
23474;SDS011;11910;52.086;21.066;2022-09-09T11:47:56;74.07;;;43.70;;
23474;SDS011;11910;52.086;21.066;2022-09-09T11:52:49;69.07;;;41.63;;
23474;SDS011;11910;52.086;21.066;2022-09-09T11:55:26;71.50;;;41.85;;
23474;SDS011;11910;52.086;21.066;2022-09-09T12:00:43;76.00;;;42.78;;
23474;SDS011;11910;52.086;21.066;2022-09-09T12:06:00;76.72;;;41.50;;
23474;SDS011;11910;52.086;21.066;2022-09-09T12:08:54;66.00;;;38.10;;
23474;SDS011;11910;52.086;21.066;2022-09-09T12:11:27;69.47;;;41.38;;
23474;SDS011;11910;52.086;21.066;2022-09-09T12:13:55;64.95;;;39.05;;
23474;SDS011;11910;52.086;21.066;2022-09-09T12:16:35;70.40;;;40.75;;
23474;SDS011;11910;52.086;21.066;2022-09-09T12:19:04;73.68;;;42.40;;
23474;SDS011;11910;52.086;21.066;2022-09-09T12:24:21;73.85;;;41.58;;
23474;SDS011;11910;52.086;21.066;2022-09-09T12:26:58;84.15;;;44.97;;
23474;SDS011;11910;52.086;21.066;2022-09-09T12:29:36;77.75;;;45.42;;
23474;SDS011;11910;52.086;21.066;2022-09-09T12:32:07;81.15;;;44.70;;
23474;SDS011;11910;52.086;21.066;2022-09-09T12:34:47;79.13;;;43.88;;
23474;SDS011;11910;52.086;21.066;2022-09-09T12:40:28;84.20;;;45.08;;
23474;SDS011;11910;52.086;21.066;2022-09-09T12:42:57;80.85;;;43.97;;
23474;SDS011;11910;52.086;21.066;2022-09-09T12:48:38;73.30;;;40.75;;
23474;SDS011;11910;52.086;21.066;2022-09-09T12:51:15;77.82;;;41.85;;
23474;SDS011;11910;52.086;21.066;2022-09-09T12:53:50;76.82;;;40.70;;
23474;SDS011;11910;52.086;21.066;2022-09-09T12:56:20;83.13;;;42.88;;
23474;SDS011;11910;52.086;21.066;2022-09-09T12:58:49;93.72;;;46.38;;
23474;SDS011;11910;52.086;21.066;2022-09-09T13:01:23;71.90;;;40.05;;
23474;SDS011;11910;52.086;21.066;2022-09-09T13:03:53;85.80;;;44.72;;
23474;SDS011;11910;52.086;21.066;2022-09-09T13:08:48;79.25;;;40.65;;
23474;SDS011;11910;52.086;21.066;2022-09-09T13:11:20;79.35;;;42.92;;
23474;SDS011;11910;52.086;21.066;2022-09-09T13:13:56;78.37;;;42.47;;
23474;SDS011;11910;52.086;21.066;2022-09-09T13:16:24;86.28;;;42.60;;
23474;SDS011;11910;52.086;21.066;2022-09-09T13:18:56;85.22;;;42.33;;
23474;SDS011;11910;52.086;21.066;2022-09-09T13:21:33;76.95;;;40.70;;
23474;SDS011;11910;52.086;21.066;2022-09-09T13:24:19;88.45;;;44.63;;
23474;SDS011;11910;52.086;21.066;2022-09-09T13:29:23;86.22;;;45.65;;
23474;SDS011;11910;52.086;21.066;2022-09-09T13:31:49;80.25;;;42.92;;
23474;SDS011;11910;52.086;21.066;2022-09-09T13:36:58;76.43;;;41.00;;
23474;SDS011;11910;52.086;21.066;2022-09-09T13:39:30;74.65;;;41.40;;
23474;SDS011;11910;52.086;21.066;2022-09-09T13:41:59;98.55;;;48.38;;
23474;SDS011;11910;52.086;21.066;2022-09-09T13:49:42;93.43;;;46.83;;
23474;SDS011;11910;52.086;21.066;2022-09-09T13:52:17;89.15;;;46.10;;
23474;SDS011;11910;52.086;21.066;2022-09-09T13:54:50;86.28;;;46.25;;
23474;SDS011;11910;52.086;21.066;2022-09-09T13:57:18;88.22;;;47.97;;
23474;SDS011;11910;52.086;21.066;2022-09-09T13:59:46;86.70;;;45.63;;
23474;SDS011;11910;52.086;21.066;2022-09-09T14:02:12;85.72;;;44.85;;
23474;SDS011;11910;52.086;21.066;2022-09-09T14:04:38;85.78;;;47.28;;
23474;SDS011;11910;52.086;21.066;2022-09-09T14:07:07;78.57;;;44.95;;
23474;SDS011;11910;52.086;21.066;2022-09-09T14:09:39;77.18;;;42.88;;
23474;SDS011;11910;52.086;21.066;2022-09-09T14:12:08;83.20;;;43.28;;
23474;SDS011;11910;52.086;21.066;2022-09-09T14:14:35;77.03;;;44.20;;
23474;SDS011;11910;52.086;21.066;2022-09-09T14:17:01;71.75;;;42.40;;
23474;SDS011;11910;52.086;21.066;2022-09-09T14:19:27;77.47;;;41.80;;
23474;SDS011;11910;52.086;21.066;2022-09-09T14:21:52;83.43;;;45.90;;
23474;SDS011;11910;52.086;21.066;2022-09-09T14:24:18;69.82;;;42.90;;
23474;SDS011;11910;52.086;21.066;2022-09-09T14:26:43;64.55;;;38.78;;
23474;SDS011;11910;52.086;21.066;2022-09-09T14:29:09;70.50;;;42.50;;
23474;SDS011;11910;52.086;21.066;2022-09-09T14:31:34;64.22;;;38.65;;
23474;SDS011;11910;52.086;21.066;2022-09-09T14:34:00;74.28;;;40.85;;
23474;SDS011;11910;52.086;21.066;2022-09-09T14:36:26;82.20;;;40.53;;
23474;SDS011;11910;52.086;21.066;2022-09-09T14:38:51;68.85;;;38.63;;
23474;SDS011;11910;52.086;21.066;2022-09-09T14:41:18;69.03;;;39.17;;
23474;SDS011;11910;52.086;21.066;2022-09-09T14:43:45;66.40;;;37.97;;
23474;SDS011;11910;52.086;21.066;2022-09-09T14:46:12;64.88;;;37.35;;
23474;SDS011;11910;52.086;21.066;2022-09-09T14:48:39;56.13;;;33.42;;
23474;SDS011;11910;52.086;21.066;2022-09-09T14:51:10;66.50;;;37.58;;
23474;SDS011;11910;52.086;21.066;2022-09-09T14:53:38;58.42;;;34.38;;
23474;SDS011;11910;52.086;21.066;2022-09-09T14:56:09;64.95;;;39.35;;
23474;SDS011;11910;52.086;21.066;2022-09-09T14:58:37;59.47;;;34.88;;
23474;SDS011;11910;52.086;21.066;2022-09-09T15:01:06;61.20;;;36.25;;
23474;SDS011;11910;52.086;21.066;2022-09-09T15:03:35;64.38;;;39.22;;
23474;SDS011;11910;52.086;21.066;2022-09-09T15:06:21;71.35;;;40.28;;
23474;SDS011;11910;52.086;21.066;2022-09-09T15:08:49;68.13;;;38.97;;
23474;SDS011;11910;52.086;21.066;2022-09-09T15:11:16;65.40;;;39.33;;
23474;SDS011;11910;52.086;21.066;2022-09-09T15:13:42;65.43;;;38.47;;
23474;SDS011;11910;52.086;21.066;2022-09-09T15:16:09;60.35;;;37.38;;
23474;SDS011;11910;52.086;21.066;2022-09-09T15:18:38;60.75;;;36.72;;
23474;SDS011;11910;52.086;21.066;2022-09-09T15:21:18;65.45;;;39.25;;
23474;SDS011;11910;52.086;21.066;2022-09-09T15:23:46;73.47;;;41.88;;
23474;SDS011;11910;52.086;21.066;2022-09-09T15:26:12;78.47;;;42.63;;
23474;SDS011;11910;52.086;21.066;2022-09-09T15:28:39;65.80;;;40.70;;
23474;SDS011;11910;52.086;21.066;2022-09-09T15:31:15;71.05;;;41.22;;
23474;SDS011;11910;52.086;21.066;2022-09-09T15:36:24;79.72;;;43.42;;
23474;SDS011;11910;52.086;21.066;2022-09-09T15:38:51;78.35;;;43.92;;
23474;SDS011;11910;52.086;21.066;2022-09-09T15:41:18;66.82;;;40.40;;
23474;SDS011;11910;52.086;21.066;2022-09-09T15:43:46;72.30;;;44.75;;
23474;SDS011;11910;52.086;21.066;2022-09-09T15:48:41;68.88;;;40.50;;
23474;SDS011;11910;52.086;21.066;2022-09-09T15:51:09;68.13;;;41.65;;
23474;SDS011;11910;52.086;21.066;2022-09-09T15:53:35;65.05;;;40.25;;
23474;SDS011;11910;52.086;21.066;2022-09-09T15:56:05;69.25;;;41.13;;
23474;SDS011;11910;52.086;21.066;2022-09-09T15:58:34;60.05;;;38.35;;
23474;SDS011;11910;52.086;21.066;2022-09-09T16:01:07;74.18;;;43.30;;
23474;SDS011;11910;52.086;21.066;2022-09-09T16:03:34;64.43;;;40.53;;
23474;SDS011;11910;52.086;21.066;2022-09-09T16:06:01;65.50;;;41.17;;
23474;SDS011;11910;52.086;21.066;2022-09-09T16:08:37;63.08;;;41.85;;
23474;SDS011;11910;52.086;21.066;2022-09-09T16:11:08;67.25;;;41.13;;
23474;SDS011;11910;52.086;21.066;2022-09-09T16:13:36;65.88;;;40.72;;
23474;SDS011;11910;52.086;21.066;2022-09-09T16:16:03;61.72;;;38.58;;
23474;SDS011;11910;52.086;21.066;2022-09-09T16:18:35;55.28;;;36.22;;
23474;SDS011;11910;52.086;21.066;2022-09-09T16:21:02;63.72;;;40.80;;
23474;SDS011;11910;52.086;21.066;2022-09-09T16:23:30;59.50;;;39.40;;
23474;SDS011;11910;52.086;21.066;2022-09-09T16:25:57;56.30;;;37.13;;
23474;SDS011;11910;52.086;21.066;2022-09-09T16:28:23;56.05;;;37.10;;
23474;SDS011;11910;52.086;21.066;2022-09-09T16:30:49;60.67;;;38.97;;
23474;SDS011;11910;52.086;21.066;2022-09-09T16:33:15;61.17;;;39.78;;
23474;SDS011;11910;52.086;21.066;2022-09-09T16:35:41;61.40;;;39.80;;
23474;SDS011;11910;52.086;21.066;2022-09-09T16:38:07;64.70;;;39.85;;
23474;SDS011;11910;52.086;21.066;2022-09-09T16:40:34;61.20;;;37.97;;
23474;SDS011;11910;52.086;21.066;2022-09-09T16:43:06;64.45;;;39.38;;
23474;SDS011;11910;52.086;21.066;2022-09-09T16:45:32;54.97;;;36.85;;
23474;SDS011;11910;52.086;21.066;2022-09-09T16:47:58;65.55;;;39.28;;
23474;SDS011;11910;52.086;21.066;2022-09-09T16:50:25;62.13;;;39.08;;
23474;SDS011;11910;52.086;21.066;2022-09-09T16:52:51;64.53;;;38.65;;
23474;SDS011;11910;52.086;21.066;2022-09-09T16:55:17;62.58;;;38.38;;
23474;SDS011;11910;52.086;21.066;2022-09-09T16:57:45;54.88;;;35.20;;
23474;SDS011;11910;52.086;21.066;2022-09-09T17:00:13;55.97;;;35.22;;
23474;SDS011;11910;52.086;21.066;2022-09-09T17:02:40;55.17;;;36.17;;
23474;SDS011;11910;52.086;21.066;2022-09-09T17:05:05;55.60;;;35.45;;
23474;SDS011;11910;52.086;21.066;2022-09-09T17:07:31;64.55;;;36.97;;